Viking, Minnesota
Current Conditions -  °F | °C
As of 10:15 AM on Wednesday 28 Jan 2015 (Local Time) from KTVF Reporting Station
Overcast Overcast  
Wind Chill: 29°   Ceiling: 1000
Heat Index: 34°   Visibility: 6mi
Dew Point: 30°   Wind: 6mph
Humidity: 87%   Direction: 160°SSE
Pressure: 29.8"   Gusts: NA
Location:  48.22°N, 96.41°W
Report Text: KTVF 281615Z AUTO 16005KT 6SM OVC010 01/M01 A2980 RMK AO1
Loading
Personal Weather Stations






























Interactive Weather Map New forecast layout! Learn more

10-Day Weather Forecast

Advertisements
Track Severe Weather on mobile